• Join FlightAware (Why Join?)
  • Login
  • US Flag 
06:33PM EDT


 

Airport Tracker/Info


-or-


 

Live Flight TrackerFlight Track Log ✈ AFL150 ✈ 08-Oct-2013 ✈ UUEE / SVO - MUHA / HAV

Flight Track Log - Related Links

Times and Time Zones

All times are in EDT time to prevent confusion due to time zone crossing. See the AFL150 flight status page for this flight to view local times or setup timezone preferences in your user account.

Time Position Orientation Groundspeed Altitude Reporting Facility
EDT Latitude Longitude Course Direction KTS MPH feet Rate Location/Type
06:47PM 23.5280 -82.0815 223° Southwest  Level Estimated
06:48PM 23.4266 -82.1434 223° Southwest  Level Estimated
06:48PM 26.4010 -82.3710 223° Southwest 457 526 35,000  Level FlightAware
06:48PM 26.3320 -82.3370 156° South 458 527 35,000  Level FlightAware
06:49PM 26.2520 -82.2980 156° South 456 525 35,000  Level FlightAware
06:49PM 26.1940 -82.2690 156° South 440 506 35,000  Level FlightAware
06:50PM 26.1290 -82.2370 156° South 442 509 35,000  Level FlightAware
06:51PM 26.0600 -82.2040 157° South 442 509 35,000  Level FlightAware
06:51PM 26.0050 -82.1770 156° South 434 499 35,000  Level FlightAware
06:51PM 25.9780 -82.1680 163° South 426 490 35,000  Level FlightAware
06:52PM 25.9470 -82.1650 175° South 419 482 35,000  Level FlightAware
06:52PM 25.9100 -82.1700 187° South 422 486 35,000  Level FlightAware
06:52PM 25.8540 -82.1810 190° South 424 488 35,000  Level FlightAware
06:53PM 25.7730 -82.1950 189° South 427 491 35,000  Level FlightAware
06:54PM 25.7200 -82.2050 190° South 420 483 35,000  Level FlightAware
06:54PM 25.6500 -82.2180 190° South 422 486 35,000  Level FlightAware
06:55PM 25.5650 -82.2340 190° South 424 488 35,000  Level FlightAware
06:55PM 25.5010 -82.2460 190° South 425 489 35,000  Level FlightAware
06:56PM 25.3950 -82.2650 189° South 426 490 35,000  Level FlightAware
06:57PM 25.3260 -82.2780 190° South 425 489 35,000  Level FlightAware
06:58PM 25.2600 -82.2890 189° South 425 489 35,000  Level FlightAware
06:58PM 25.1610 -82.3080 190° South 425 489 35,000  Level FlightAware
06:59PM 25.0650 -82.3250 189° South 426 490 35,000  Level FlightAware
07:00PM 24.9770 -82.3420 190° South 440 506 35,000  Level FlightAware
07:01PM 24.8680 -82.3620 189° South 427 491 35,000 -360 Level FlightAware
07:01PM 24.7830 -82.3770 189° South 438 504 34,500 -660 Descending FlightAware
07:02PM 24.6960 -82.3930 189° South 440 506 34,100 -300 Descending FlightAware
07:03PM 24.6340 -82.4030 188° South 440 506 34,100  Level FlightAware
07:03PM 24.5730 -82.4140 189° South 440 506 34,100  Level FlightAware
07:04PM 24.5110 -82.4250 189° South 440 506 34,100 -4,200 Level FlightAware
07:05PM 24.4040 -82.4460 190° South 406 467 28,800 -4,080 Descending FlightAware
07:05PM 24.3440 -82.4560 189° South 406 467 28,800  Level FlightAware
07:06PM 24.2870 -82.4660 189° South 406 467 28,800  Level FlightAware
07:07PM 24.2310 -82.4760 189° South 406 467 28,800  Level FlightAware
07:07PM 24.1740 -82.4860 189° South 406 467 28,800  Level FlightAware
07:08PM 24.1160 -82.4960 189° South 406 467 28,800  Level FlightAware
07:08PM 24.0570 -82.5060 189° South 406 467 28,800 -6,360 Level FlightAware
07:09PM 23.9414 -82.5294 189° South 407 468 20,900 -12,480 Descending Miami Center
07:11PM 23.7748 -82.4658 161° South  Level FlightAware Approximate
07:18PM 22.9891 -82.4091 180° South  Level Estimated
07:19PM 22.9891 -82.4091 180° South  Level Estimated
07:20PM 22.9891 -82.4091 180° South  Level Estimated
07:21PM 22.9891 -82.4091 180° South  Level Estimated
07:22PM 22.9891 -82.4091 180° South  Level Estimated
07:23PM 22.9891 -82.4091 180° South  Level Estimated
07:24PM 22.9891 -82.4091 180° South  Level Estimated
07:25PM 22.9891 -82.4091 180° South  Level Estimated
07:26PM 22.9891 -82.4091 180° South  Level Estimated
07:27PM 22.9891 -82.4091 180° South  Level Estimated
07:28PM 22.9891 -82.4091 180° South  Level Estimated
07:29PM 22.9891 -82.4091 180° South  Level Estimated
07:30PM 22.9891 -82.4091 180° South  Level Estimated
07:31PM 22.9891 -82.4091 180° South  Level Estimated
07:32PM 22.9891 -82.4091 180° South  Level Estimated
07:33PM 22.9891 -82.4091 180° South  Level Estimated
07:34PM 22.9891 -82.4091 180° South  Level Estimated
07:35PM 22.9891 -82.4091 180° South  Level Estimated
07:36PM 22.9891 -82.4091 180° South  Level Estimated
07:37PM 22.9891 -82.4091 180° South  Level Estimated